sensor_id;sensor_type;location;lat;lon;timestamp;P1;durP1;ratioP1;P2;durP2;ratioP2
69280;SDS011;56392;51.082;17.080;2022-11-20T00:00:10;72.90;;;29.73;;
69280;SDS011;56392;51.082;17.080;2022-11-20T00:05:35;77.05;;;30.60;;
69280;SDS011;56392;51.082;17.080;2022-11-20T00:10:38;79.10;;;30.37;;
69280;SDS011;56392;51.082;17.080;2022-11-20T00:15:42;91.90;;;32.72;;
69280;SDS011;56392;51.082;17.080;2022-11-20T00:20:46;134.77;;;42.85;;
69280;SDS011;56392;51.082;17.080;2022-11-20T00:25:48;241.20;;;76.57;;
69280;SDS011;56392;51.082;17.080;2022-11-20T00:30:59;177.70;;;59.78;;
69280;SDS011;56392;51.082;17.080;2022-11-20T00:36:05;108.53;;;35.87;;
69280;SDS011;56392;51.082;17.080;2022-11-20T00:41:10;96.20;;;32.83;;
69280;SDS011;56392;51.082;17.080;2022-11-20T00:46:15;183.82;;;61.70;;
69280;SDS011;56392;51.082;17.080;2022-11-20T00:51:21;102.07;;;37.20;;
69280;SDS011;56392;51.082;17.080;2022-11-20T00:56:25;104.15;;;37.00;;
69280;SDS011;56392;51.082;17.080;2022-11-20T01:01:28;89.17;;;32.73;;
69280;SDS011;56392;51.082;17.080;2022-11-20T01:06:33;87.72;;;32.53;;
69280;SDS011;56392;51.082;17.080;2022-11-20T01:11:38;87.78;;;32.38;;
69280;SDS011;56392;51.082;17.080;2022-11-20T01:16:43;84.83;;;32.77;;
69280;SDS011;56392;51.082;17.080;2022-11-20T01:21:50;86.32;;;33.53;;
69280;SDS011;56392;51.082;17.080;2022-11-20T01:26:54;83.80;;;33.90;;
69280;SDS011;56392;51.082;17.080;2022-11-20T01:31:56;92.85;;;36.97;;
69280;SDS011;56392;51.082;17.080;2022-11-20T01:37:00;258.98;;;92.60;;
69280;SDS011;56392;51.082;17.080;2022-11-20T01:42:03;292.93;;;95.13;;
69280;SDS011;56392;51.082;17.080;2022-11-20T01:47:25;175.80;;;60.15;;
69280;SDS011;56392;51.082;17.080;2022-11-20T01:52:34;112.53;;;41.87;;
69280;SDS011;56392;51.082;17.080;2022-11-20T01:57:40;178.75;;;64.50;;
69280;SDS011;56392;51.082;17.080;2022-11-20T02:02:44;84.38;;;32.72;;
69280;SDS011;56392;51.082;17.080;2022-11-20T02:07:51;81.83;;;32.23;;
69280;SDS011;56392;51.082;17.080;2022-11-20T02:12:56;89.55;;;34.35;;
69280;SDS011;56392;51.082;17.080;2022-11-20T02:18:17;113.90;;;40.90;;
69280;SDS011;56392;51.082;17.080;2022-11-20T02:23:23;79.78;;;32.22;;
69280;SDS011;56392;51.082;17.080;2022-11-20T02:28:34;95.35;;;31.40;;
69280;SDS011;56392;51.082;17.080;2022-11-20T02:33:37;82.63;;;31.90;;
69280;SDS011;56392;51.082;17.080;2022-11-20T02:38:39;78.15;;;29.92;;
69280;SDS011;56392;51.082;17.080;2022-11-20T02:43:44;179.20;;;60.17;;
69280;SDS011;56392;51.082;17.080;2022-11-20T02:48:47;173.98;;;59.53;;
69280;SDS011;56392;51.082;17.080;2022-11-20T02:53:50;265.73;;;89.07;;
69280;SDS011;56392;51.082;17.080;2022-11-20T02:58:54;306.90;;;101.27;;
69280;SDS011;56392;51.082;17.080;2022-11-20T03:03:56;100.00;;;38.35;;
69280;SDS011;56392;51.082;17.080;2022-11-20T03:08:59;80.30;;;31.50;;
69280;SDS011;56392;51.082;17.080;2022-11-20T03:14:04;68.47;;;28.20;;
69280;SDS011;56392;51.082;17.080;2022-11-20T03:19:07;73.72;;;28.30;;
69280;SDS011;56392;51.082;17.080;2022-11-20T03:24:09;79.53;;;31.27;;
69280;SDS011;56392;51.082;17.080;2022-11-20T03:29:13;76.32;;;30.55;;
69280;SDS011;56392;51.082;17.080;2022-11-20T03:34:16;80.47;;;32.70;;
69280;SDS011;56392;51.082;17.080;2022-11-20T03:39:22;86.20;;;31.90;;
69280;SDS011;56392;51.082;17.080;2022-11-20T03:44:26;75.05;;;32.03;;
69280;SDS011;56392;51.082;17.080;2022-11-20T03:49:28;75.57;;;30.67;;
69280;SDS011;56392;51.082;17.080;2022-11-20T03:54:31;66.97;;;29.10;;
69280;SDS011;56392;51.082;17.080;2022-11-20T03:59:35;73.60;;;29.13;;
69280;SDS011;56392;51.082;17.080;2022-11-20T04:04:39;66.72;;;28.23;;
69280;SDS011;56392;51.082;17.080;2022-11-20T04:09:43;70.15;;;27.83;;
69280;SDS011;56392;51.082;17.080;2022-11-20T04:14:49;70.77;;;27.43;;
69280;SDS011;56392;51.082;17.080;2022-11-20T04:19:51;69.18;;;27.33;;
69280;SDS011;56392;51.082;17.080;2022-11-20T04:24:54;73.67;;;27.47;;
69280;SDS011;56392;51.082;17.080;2022-11-20T04:29:58;63.92;;;25.77;;
69280;SDS011;56392;51.082;17.080;2022-11-20T04:35:01;66.50;;;25.05;;
69280;SDS011;56392;51.082;17.080;2022-11-20T04:40:04;64.40;;;25.63;;
69280;SDS011;56392;51.082;17.080;2022-11-20T04:45:09;60.17;;;25.20;;
69280;SDS011;56392;51.082;17.080;2022-11-20T04:50:12;62.83;;;25.40;;
69280;SDS011;56392;51.082;17.080;2022-11-20T04:55:14;57.58;;;24.52;;
69280;SDS011;56392;51.082;17.080;2022-11-20T05:00:18;66.38;;;25.05;;
69280;SDS011;56392;51.082;17.080;2022-11-20T05:05:21;73.33;;;30.03;;
69280;SDS011;56392;51.082;17.080;2022-11-20T05:10:24;59.42;;;24.08;;
69280;SDS011;56392;51.082;17.080;2022-11-20T05:15:28;69.13;;;26.83;;
69280;SDS011;56392;51.082;17.080;2022-11-20T05:20:31;62.45;;;24.33;;
69280;SDS011;56392;51.082;17.080;2022-11-20T05:25:34;59.65;;;24.77;;
69280;SDS011;56392;51.082;17.080;2022-11-20T05:30:38;62.80;;;26.73;;
69280;SDS011;56392;51.082;17.080;2022-11-20T05:35:40;100.78;;;37.92;;
69280;SDS011;56392;51.082;17.080;2022-11-20T05:40:43;99.47;;;39.53;;
69280;SDS011;56392;51.082;17.080;2022-11-20T05:45:52;74.18;;;31.35;;
69280;SDS011;56392;51.082;17.080;2022-11-20T05:50:56;95.38;;;41.63;;
69280;SDS011;56392;51.082;17.080;2022-11-20T05:55:59;198.20;;;82.73;;
69280;SDS011;56392;51.082;17.080;2022-11-20T06:01:06;102.65;;;46.78;;
69280;SDS011;56392;51.082;17.080;2022-11-20T06:06:09;156.23;;;57.27;;
69280;SDS011;56392;51.082;17.080;2022-11-20T06:11:12;232.88;;;71.45;;
69280;SDS011;56392;51.082;17.080;2022-11-20T06:16:20;127.53;;;43.00;;
69280;SDS011;56392;51.082;17.080;2022-11-20T06:21:26;74.83;;;28.93;;
69280;SDS011;56392;51.082;17.080;2022-11-20T06:26:29;133.13;;;40.65;;
69280;SDS011;56392;51.082;17.080;2022-11-20T06:31:34;76.83;;;29.47;;
69280;SDS011;56392;51.082;17.080;2022-11-20T06:36:39;69.13;;;28.23;;
69280;SDS011;56392;51.082;17.080;2022-11-20T06:41:41;76.47;;;27.92;;
69280;SDS011;56392;51.082;17.080;2022-11-20T06:46:45;83.77;;;32.20;;
69280;SDS011;56392;51.082;17.080;2022-11-20T06:51:48;68.55;;;28.00;;
69280;SDS011;56392;51.082;17.080;2022-11-20T06:56:51;70.00;;;27.87;;
69280;SDS011;56392;51.082;17.080;2022-11-20T07:01:55;84.75;;;35.22;;
69280;SDS011;56392;51.082;17.080;2022-11-20T07:06:58;72.07;;;29.45;;
69280;SDS011;56392;51.082;17.080;2022-11-20T07:12:01;102.73;;;35.23;;
69280;SDS011;56392;51.082;17.080;2022-11-20T07:17:05;437.63;;;118.70;;
69280;SDS011;56392;51.082;17.080;2022-11-20T07:22:08;440.00;;;129.20;;
69280;SDS011;56392;51.082;17.080;2022-11-20T07:27:11;163.60;;;56.58;;
69280;SDS011;56392;51.082;17.080;2022-11-20T07:32:16;170.57;;;56.13;;
69280;SDS011;56392;51.082;17.080;2022-11-20T07:37:21;162.63;;;56.73;;
69280;SDS011;56392;51.082;17.080;2022-11-20T07:42:24;131.90;;;47.53;;
69280;SDS011;56392;51.082;17.080;2022-11-20T07:47:28;90.17;;;36.60;;
69280;SDS011;56392;51.082;17.080;2022-11-20T07:52:31;136.40;;;50.13;;
69280;SDS011;56392;51.082;17.080;2022-11-20T07:57:34;85.38;;;34.88;;
69280;SDS011;56392;51.082;17.080;2022-11-20T08:02:38;90.00;;;36.43;;
69280;SDS011;56392;51.082;17.080;2022-11-20T08:07:41;79.80;;;33.78;;
69280;SDS011;56392;51.082;17.080;2022-11-20T08:12:46;94.70;;;36.17;;
69280;SDS011;56392;51.082;17.080;2022-11-20T08:18:09;86.07;;;34.38;;
69280;SDS011;56392;51.082;17.080;2022-11-20T08:23:13;86.93;;;35.40;;
69280;SDS011;56392;51.082;17.080;2022-11-20T08:28:16;80.30;;;32.80;;
69280;SDS011;56392;51.082;17.080;2022-11-20T08:33:20;68.93;;;29.80;;
69280;SDS011;56392;51.082;17.080;2022-11-20T08:38:23;106.97;;;39.17;;
69280;SDS011;56392;51.082;17.080;2022-11-20T08:43:29;72.60;;;30.10;;
69280;SDS011;56392;51.082;17.080;2022-11-20T08:48:33;67.22;;;27.58;;
69280;SDS011;56392;51.082;17.080;2022-11-20T08:53:36;70.07;;;28.50;;
69280;SDS011;56392;51.082;17.080;2022-11-20T08:58:39;77.50;;;31.42;;
69280;SDS011;56392;51.082;17.080;2022-11-20T09:03:44;67.68;;;27.95;;
69280;SDS011;56392;51.082;17.080;2022-11-20T09:08:46;62.30;;;25.90;;
69280;SDS011;56392;51.082;17.080;2022-11-20T09:13:49;88.15;;;34.88;;
69280;SDS011;56392;51.082;17.080;2022-11-20T09:18:54;65.70;;;27.57;;
69280;SDS011;56392;51.082;17.080;2022-11-20T09:23:57;54.17;;;23.83;;
69280;SDS011;56392;51.082;17.080;2022-11-20T09:29:00;52.72;;;22.10;;
69280;SDS011;56392;51.082;17.080;2022-11-20T09:34:04;102.93;;;38.67;;
69280;SDS011;56392;51.082;17.080;2022-11-20T09:39:07;57.93;;;25.47;;
69280;SDS011;56392;51.082;17.080;2022-11-20T09:44:12;53.08;;;23.80;;
69280;SDS011;56392;51.082;17.080;2022-11-20T09:49:32;87.60;;;33.20;;
69280;SDS011;56392;51.082;17.080;2022-11-20T09:54:44;65.50;;;27.60;;
69280;SDS011;56392;51.082;17.080;2022-11-20T09:59:48;50.33;;;22.27;;
69280;SDS011;56392;51.082;17.080;2022-11-20T10:04:55;58.70;;;24.87;;
69280;SDS011;56392;51.082;17.080;2022-11-20T10:10:01;59.70;;;24.92;;
69280;SDS011;56392;51.082;17.080;2022-11-20T10:15:09;61.00;;;24.70;;
69280;SDS011;56392;51.082;17.080;2022-11-20T10:20:23;102.37;;;37.87;;
69280;SDS011;56392;51.082;17.080;2022-11-20T10:25:33;53.40;;;23.63;;
69280;SDS011;56392;51.082;17.080;2022-11-20T10:30:42;75.13;;;28.67;;
69280;SDS011;56392;51.082;17.080;2022-11-20T10:35:50;114.10;;;39.50;;
69280;SDS011;56392;51.082;17.080;2022-11-20T10:41:02;84.57;;;32.45;;
69280;SDS011;56392;51.082;17.080;2022-11-20T10:46:25;53.53;;;22.75;;
69280;SDS011;56392;51.082;17.080;2022-11-20T10:51:36;63.73;;;23.60;;
69280;SDS011;56392;51.082;17.080;2022-11-20T10:56:44;56.78;;;22.52;;
69280;SDS011;56392;51.082;17.080;2022-11-20T11:01:49;35.08;;;16.40;;
69280;SDS011;56392;51.082;17.080;2022-11-20T11:06:53;38.47;;;17.33;;
69280;SDS011;56392;51.082;17.080;2022-11-20T11:12:01;63.72;;;22.88;;
69280;SDS011;56392;51.082;17.080;2022-11-20T11:17:17;39.10;;;16.33;;
69280;SDS011;56392;51.082;17.080;2022-11-20T11:22:24;38.17;;;17.47;;
69280;SDS011;56392;51.082;17.080;2022-11-20T11:27:27;45.25;;;18.60;;
69280;SDS011;56392;51.082;17.080;2022-11-20T11:32:30;45.35;;;18.05;;
69280;SDS011;56392;51.082;17.080;2022-11-20T11:37:37;31.30;;;14.53;;
69280;SDS011;56392;51.082;17.080;2022-11-20T11:42:41;39.87;;;16.83;;
69280;SDS011;56392;51.082;17.080;2022-11-20T11:47:45;38.38;;;16.15;;
69280;SDS011;56392;51.082;17.080;2022-11-20T11:52:58;49.17;;;20.02;;
69280;SDS011;56392;51.082;17.080;2022-11-20T11:58:11;58.13;;;23.77;;
69280;SDS011;56392;51.082;17.080;2022-11-20T12:03:20;45.88;;;18.90;;
69280;SDS011;56392;51.082;17.080;2022-11-20T12:08:29;33.55;;;15.30;;
69280;SDS011;56392;51.082;17.080;2022-11-20T12:13:41;39.73;;;18.37;;
69280;SDS011;56392;51.082;17.080;2022-11-20T12:18:51;37.75;;;16.27;;
69280;SDS011;56392;51.082;17.080;2022-11-20T12:24:01;33.70;;;15.15;;
69280;SDS011;56392;51.082;17.080;2022-11-20T12:29:16;47.87;;;20.67;;
69280;SDS011;56392;51.082;17.080;2022-11-20T12:34:39;36.53;;;16.07;;
69280;SDS011;56392;51.082;17.080;2022-11-20T12:39:49;33.00;;;14.48;;
69280;SDS011;56392;51.082;17.080;2022-11-20T12:45:07;30.00;;;14.07;;
69280;SDS011;56392;51.082;17.080;2022-11-20T12:50:22;39.57;;;16.67;;
69280;SDS011;56392;51.082;17.080;2022-11-20T12:55:35;28.27;;;13.00;;
69280;SDS011;56392;51.082;17.080;2022-11-20T13:00:51;33.17;;;13.38;;
69280;SDS011;56392;51.082;17.080;2022-11-20T13:05:59;34.03;;;16.33;;
69280;SDS011;56392;51.082;17.080;2022-11-20T13:11:14;57.92;;;20.30;;
69280;SDS011;56392;51.082;17.080;2022-11-20T13:16:23;60.88;;;21.80;;
69280;SDS011;56392;51.082;17.080;2022-11-20T13:21:37;31.70;;;14.73;;
69280;SDS011;56392;51.082;17.080;2022-11-20T13:26:45;38.33;;;15.43;;
69280;SDS011;56392;51.082;17.080;2022-11-20T13:31:48;28.80;;;12.40;;
69280;SDS011;56392;51.082;17.080;2022-11-20T13:36:52;34.78;;;15.10;;
69280;SDS011;56392;51.082;17.080;2022-11-20T13:41:58;29.93;;;13.27;;
69280;SDS011;56392;51.082;17.080;2022-11-20T13:47:02;46.20;;;18.77;;
69280;SDS011;56392;51.082;17.080;2022-11-20T13:52:08;28.90;;;13.02;;
69280;SDS011;56392;51.082;17.080;2022-11-20T13:57:42;32.50;;;13.57;;
69280;SDS011;56392;51.082;17.080;2022-11-20T14:02:59;29.98;;;13.63;;
69280;SDS011;56392;51.082;17.080;2022-11-20T14:08:11;25.90;;;11.43;;
69280;SDS011;56392;51.082;17.080;2022-11-20T14:13:21;26.57;;;12.33;;
69280;SDS011;56392;51.082;17.080;2022-11-20T14:18:25;30.70;;;14.40;;
69280;SDS011;56392;51.082;17.080;2022-11-20T14:23:28;25.45;;;12.25;;
69280;SDS011;56392;51.082;17.080;2022-11-20T14:28:35;27.75;;;12.30;;
69280;SDS011;56392;51.082;17.080;2022-11-20T14:33:38;27.97;;;12.40;;
69280;SDS011;56392;51.082;17.080;2022-11-20T14:38:40;26.70;;;12.63;;
69280;SDS011;56392;51.082;17.080;2022-11-20T14:43:46;28.10;;;12.70;;
69280;SDS011;56392;51.082;17.080;2022-11-20T14:48:51;26.63;;;12.67;;
69280;SDS011;56392;51.082;17.080;2022-11-20T14:54:09;28.70;;;12.88;;
69280;SDS011;56392;51.082;17.080;2022-11-20T14:59:22;29.25;;;12.75;;
69280;SDS011;56392;51.082;17.080;2022-11-20T15:04:25;32.33;;;13.67;;
69280;SDS011;56392;51.082;17.080;2022-11-20T15:09:28;32.10;;;14.37;;
69280;SDS011;56392;51.082;17.080;2022-11-20T15:14:39;31.63;;;14.40;;
69280;SDS011;56392;51.082;17.080;2022-11-20T15:19:42;33.30;;;15.07;;
69280;SDS011;56392;51.082;17.080;2022-11-20T15:24:45;35.33;;;15.27;;
69280;SDS011;56392;51.082;17.080;2022-11-20T15:29:49;40.97;;;18.42;;
69280;SDS011;56392;51.082;17.080;2022-11-20T15:34:52;41.33;;;18.77;;
69280;SDS011;56392;51.082;17.080;2022-11-20T15:39:55;44.03;;;17.50;;
69280;SDS011;56392;51.082;17.080;2022-11-20T15:44:59;41.78;;;17.73;;
69280;SDS011;56392;51.082;17.080;2022-11-20T15:50:01;41.85;;;16.63;;
69280;SDS011;56392;51.082;17.080;2022-11-20T15:55:07;42.53;;;17.70;;
69280;SDS011;56392;51.082;17.080;2022-11-20T16:00:13;37.80;;;17.35;;
69280;SDS011;56392;51.082;17.080;2022-11-20T16:05:18;38.40;;;16.98;;
69280;SDS011;56392;51.082;17.080;2022-11-20T16:10:21;41.87;;;18.13;;
69280;SDS011;56392;51.082;17.080;2022-11-20T16:15:25;44.45;;;19.70;;
69280;SDS011;56392;51.082;17.080;2022-11-20T16:20:46;57.22;;;23.42;;
69280;SDS011;56392;51.082;17.080;2022-11-20T16:25:51;69.97;;;27.07;;
69280;SDS011;56392;51.082;17.080;2022-11-20T16:30:55;73.88;;;29.00;;
69280;SDS011;56392;51.082;17.080;2022-11-20T16:36:05;73.80;;;28.98;;
69280;SDS011;56392;51.082;17.080;2022-11-20T16:41:11;67.83;;;27.20;;
69280;SDS011;56392;51.082;17.080;2022-11-20T16:46:17;62.97;;;26.20;;
69280;SDS011;56392;51.082;17.080;2022-11-20T16:51:21;58.70;;;25.10;;
69280;SDS011;56392;51.082;17.080;2022-11-20T16:56:25;56.87;;;25.63;;
69280;SDS011;56392;51.082;17.080;2022-11-20T17:01:30;54.42;;;24.15;;
69280;SDS011;56392;51.082;17.080;2022-11-20T17:06:35;51.53;;;23.95;;
69280;SDS011;56392;51.082;17.080;2022-11-20T17:11:39;44.33;;;20.67;;
69280;SDS011;56392;51.082;17.080;2022-11-20T17:16:43;49.53;;;21.67;;
69280;SDS011;56392;51.082;17.080;2022-11-20T17:21:46;47.03;;;22.27;;
69280;SDS011;56392;51.082;17.080;2022-11-20T17:26:49;45.67;;;20.83;;
69280;SDS011;56392;51.082;17.080;2022-11-20T17:31:53;49.92;;;21.65;;
69280;SDS011;56392;51.082;17.080;2022-11-20T17:36:56;55.03;;;22.97;;
69280;SDS011;56392;51.082;17.080;2022-11-20T17:41:59;52.17;;;23.13;;
69280;SDS011;56392;51.082;17.080;2022-11-20T17:47:20;49.22;;;21.90;;
69280;SDS011;56392;51.082;17.080;2022-11-20T17:52:23;47.13;;;22.07;;
69280;SDS011;56392;51.082;17.080;2022-11-20T17:57:26;48.27;;;20.60;;
69280;SDS011;56392;51.082;17.080;2022-11-20T18:02:47;44.72;;;20.33;;
69280;SDS011;56392;51.082;17.080;2022-11-20T18:07:51;46.47;;;20.00;;
69280;SDS011;56392;51.082;17.080;2022-11-20T18:12:54;41.97;;;18.93;;
69280;SDS011;56392;51.082;17.080;2022-11-20T18:17:58;41.10;;;18.27;;
69280;SDS011;56392;51.082;17.080;2022-11-20T18:23:01;43.83;;;19.37;;
69280;SDS011;56392;51.082;17.080;2022-11-20T18:28:04;42.03;;;18.43;;
69280;SDS011;56392;51.082;17.080;2022-11-20T18:33:08;78.65;;;26.67;;
69280;SDS011;56392;51.082;17.080;2022-11-20T18:38:11;63.63;;;26.10;;
69280;SDS011;56392;51.082;17.080;2022-11-20T18:43:13;47.13;;;20.73;;
69280;SDS011;56392;51.082;17.080;2022-11-20T18:48:35;50.80;;;20.65;;
69280;SDS011;56392;51.082;17.080;2022-11-20T18:53:38;50.57;;;23.30;;
69280;SDS011;56392;51.082;17.080;2022-11-20T18:58:41;54.90;;;23.30;;
69280;SDS011;56392;51.082;17.080;2022-11-20T19:03:48;65.13;;;27.65;;
69280;SDS011;56392;51.082;17.080;2022-11-20T19:08:51;61.07;;;25.77;;
69280;SDS011;56392;51.082;17.080;2022-11-20T19:13:54;61.60;;;27.27;;
69280;SDS011;56392;51.082;17.080;2022-11-20T19:18:59;64.72;;;29.23;;
69280;SDS011;56392;51.082;17.080;2022-11-20T19:24:03;65.00;;;29.03;;
69280;SDS011;56392;51.082;17.080;2022-11-20T19:29:06;57.45;;;27.20;;
69280;SDS011;56392;51.082;17.080;2022-11-20T19:34:10;56.73;;;25.93;;
69280;SDS011;56392;51.082;17.080;2022-11-20T19:39:13;58.73;;;26.97;;
69280;SDS011;56392;51.082;17.080;2022-11-20T19:44:16;61.05;;;29.33;;
69280;SDS011;56392;51.082;17.080;2022-11-20T19:49:20;59.40;;;26.50;;
69280;SDS011;56392;51.082;17.080;2022-11-20T19:54:43;57.65;;;24.77;;
69280;SDS011;56392;51.082;17.080;2022-11-20T19:59:46;72.93;;;28.05;;
69280;SDS011;56392;51.082;17.080;2022-11-20T20:04:53;66.03;;;28.40;;
69280;SDS011;56392;51.082;17.080;2022-11-20T20:09:56;61.50;;;26.50;;
69280;SDS011;56392;51.082;17.080;2022-11-20T20:14:59;66.45;;;28.27;;
69280;SDS011;56392;51.082;17.080;2022-11-20T20:20:04;66.37;;;28.03;;
69280;SDS011;56392;51.082;17.080;2022-11-20T20:25:07;70.35;;;31.02;;
69280;SDS011;56392;51.082;17.080;2022-11-20T20:30:10;78.27;;;34.27;;
69280;SDS011;56392;51.082;17.080;2022-11-20T20:35:15;113.93;;;42.17;;
69280;SDS011;56392;51.082;17.080;2022-11-20T20:40:18;108.97;;;40.35;;
69280;SDS011;56392;51.082;17.080;2022-11-20T20:45:21;90.83;;;36.57;;
69280;SDS011;56392;51.082;17.080;2022-11-20T20:50:26;84.18;;;33.13;;
69280;SDS011;56392;51.082;17.080;2022-11-20T20:55:28;77.07;;;31.13;;
69280;SDS011;56392;51.082;17.080;2022-11-20T21:00:33;81.03;;;32.27;;
69280;SDS011;56392;51.082;17.080;2022-11-20T21:05:37;70.55;;;28.98;;
69280;SDS011;56392;51.082;17.080;2022-11-20T21:10:40;79.03;;;31.88;;
69280;SDS011;56392;51.082;17.080;2022-11-20T21:15:45;65.67;;;28.03;;
69280;SDS011;56392;51.082;17.080;2022-11-20T21:20:50;71.55;;;30.70;;
69280;SDS011;56392;51.082;17.080;2022-11-20T21:26:11;75.90;;;31.92;;
69280;SDS011;56392;51.082;17.080;2022-11-20T21:31:15;78.57;;;31.37;;
69280;SDS011;56392;51.082;17.080;2022-11-20T21:36:22;78.13;;;31.33;;
69280;SDS011;56392;51.082;17.080;2022-11-20T21:41:26;71.40;;;29.70;;
69280;SDS011;56392;51.082;17.080;2022-11-20T21:46:32;77.13;;;32.40;;
69280;SDS011;56392;51.082;17.080;2022-11-20T21:51:37;97.35;;;36.55;;
69280;SDS011;56392;51.082;17.080;2022-11-20T21:56:40;105.23;;;36.63;;
69280;SDS011;56392;51.082;17.080;2022-11-20T22:01:43;121.67;;;38.73;;
69280;SDS011;56392;51.082;17.080;2022-11-20T22:06:47;120.22;;;38.97;;
69280;SDS011;56392;51.082;17.080;2022-11-20T22:11:50;100.77;;;35.30;;
69280;SDS011;56392;51.082;17.080;2022-11-20T22:16:52;88.67;;;33.93;;
69280;SDS011;56392;51.082;17.080;2022-11-20T22:21:58;93.47;;;34.03;;
69280;SDS011;56392;51.082;17.080;2022-11-20T22:27:01;98.47;;;36.80;;
69280;SDS011;56392;51.082;17.080;2022-11-20T22:32:04;99.65;;;36.67;;
69280;SDS011;56392;51.082;17.080;2022-11-20T22:37:09;96.82;;;37.65;;
69280;SDS011;56392;51.082;17.080;2022-11-20T22:42:13;92.67;;;36.60;;
69280;SDS011;56392;51.082;17.080;2022-11-20T22:47:20;96.13;;;35.75;;
69280;SDS011;56392;51.082;17.080;2022-11-20T22:52:24;88.75;;;34.75;;
69280;SDS011;56392;51.082;17.080;2022-11-20T22:57:27;86.20;;;35.50;;
69280;SDS011;56392;51.082;17.080;2022-11-20T23:02:30;88.65;;;36.15;;
69280;SDS011;56392;51.082;17.080;2022-11-20T23:07:34;87.33;;;35.87;;
69280;SDS011;56392;51.082;17.080;2022-11-20T23:12:37;95.50;;;38.37;;
69280;SDS011;56392;51.082;17.080;2022-11-20T23:17:39;88.13;;;35.92;;
69280;SDS011;56392;51.082;17.080;2022-11-20T23:22:44;94.40;;;36.43;;
69280;SDS011;56392;51.082;17.080;2022-11-20T23:27:46;91.45;;;35.92;;
69280;SDS011;56392;51.082;17.080;2022-11-20T23:32:49;88.75;;;35.33;;
69280;SDS011;56392;51.082;17.080;2022-11-20T23:37:54;107.90;;;39.83;;
69280;SDS011;56392;51.082;17.080;2022-11-20T23:42:56;100.25;;;39.78;;
69280;SDS011;56392;51.082;17.080;2022-11-20T23:48:17;106.53;;;40.80;;
69280;SDS011;56392;51.082;17.080;2022-11-20T23:53:23;111.88;;;41.15;;
69280;SDS011;56392;51.082;17.080;2022-11-20T23:58:30;122.85;;;43.70;;
